NCAR-RAP Real-Time Weather Data

Output produced by METARs form (17 September 2019  16:36 UTC)
found at http://weather.rap.ucar.edu/surface/
 
KCYS 171553Z 25007KT 10SM FEW100 23/03 A2999 RMK AO2 SLP069 T02330028
KCYS 171453Z 25008KT 10SM CLR 21/03 A2999 RMK AO2 SLP070 T02060033 51004
KCYS 171353Z 28009KT 10SM CLR 17/03 A2998 RMK AO2 SLP068 T01720033
KCYS 171253Z 27011KT 10SM SCT120 17/03 A2998 RMK AO2 SLP063 T01670028
KCYS 171153Z 28010KT 10SM CLR 16/03 A2997 RMK AO2 SLP056 T01610028 10178 20128 55003
KCYS 171053Z AUTO 29012KT 10SM CLR 18/02 A2997 RMK AO2 SLP054 T01780022
KCYS 170953Z AUTO 28007KT 10SM BKN110 13/04 A2998 RMK AO2 SLP062 T01330039
KCYS 170853Z AUTO 28008KT 10SM CLR 14/03 A2998 RMK AO2 SLP059 T01440033 56002
KCYS 170753Z AUTO 28009KT 10SM CLR 13/03 A2999 RMK AO2 SLP062 T01330033
KCYS 170653Z AUTO 28007KT 10SM CLR 13/03 A2998 RMK AO2 SLP063 T01330028 403000128
KCYS 170553Z AUTO 29004KT 10SM CLR 14/03 A2999 RMK AO2 SLP065 T01390028 10267 20139 58003
KCYS 170453Z AUTO 30003KT 10SM CLR 16/02 A2999 RMK AO2 SLP064 T01610022
KCYS 170353Z AUTO 28006KT 10SM OVC110 17/02 A3000 RMK AO2 SLP070 T01670022
KCYS 170253Z 27004KT 10SM BKN120 18/04 A3000 RMK AO2 SLP071 T01830039 53004
KCYS 170053Z 11003KT 10SM SCT120 24/M01 A2999 RMK AO2 SLP070 T02441006
KCYS 162353Z 00000KT 10SM CLR 27/M01 A2999 RMK AO2 SLP066 T02671011 10300 20261 56002
KCYS 162253Z 33005KT 10SM CLR 27/M02 A2999 RMK AO2 SLP066 T02671017
KCYS 162153Z 29012G17KT 10SM BKN110 27/M02 A2999 RMK AO2 SLP066 T02721017